sensor_id;sensor_type;location;lat;lon;timestamp;temperature;humidity
20384;DHT22;46458;50.966;7.002;2024-03-29T00:01:04;9.50;99.90
20384;DHT22;46458;50.966;7.002;2024-03-29T00:03:30;9.50;99.90
20384;DHT22;46458;50.966;7.002;2024-03-29T00:05:56;9.50;99.90
20384;DHT22;46458;50.966;7.002;2024-03-29T00:08:22;9.40;99.90
20384;DHT22;46458;50.966;7.002;2024-03-29T00:10:51;9.30;99.90
20384;DHT22;46458;50.966;7.002;2024-03-29T00:13:17;9.30;99.90
20384;DHT22;46458;50.966;7.002;2024-03-29T00:15:45;9.20;99.90
20384;DHT22;46458;50.966;7.002;2024-03-29T00:18:11;9.20;99.90
20384;DHT22;46458;50.966;7.002;2024-03-29T00:20:38;9.20;99.90
20384;DHT22;46458;50.966;7.002;2024-03-29T00:23:04;9.20;99.90
20384;DHT22;46458;50.966;7.002;2024-03-29T00:25:30;9.20;99.90
20384;DHT22;46458;50.966;7.002;2024-03-29T00:27:59;9.20;99.90
20384;DHT22;46458;50.966;7.002;2024-03-29T00:30:25;9.10;99.90
20384;DHT22;46458;50.966;7.002;2024-03-29T00:32:51;9.10;99.90
20384;DHT22;46458;50.966;7.002;2024-03-29T00:35:17;9.00;99.90
20384;DHT22;46458;50.966;7.002;2024-03-29T00:37:43;9.00;99.90
20384;DHT22;46458;50.966;7.002;2024-03-29T00:40:11;9.00;99.90
20384;DHT22;46458;50.966;7.002;2024-03-29T00:42:37;9.00;99.90
20384;DHT22;46458;50.966;7.002;2024-03-29T00:45:07;9.00;99.90
20384;DHT22;46458;50.966;7.002;2024-03-29T00:47:33;9.00;99.90
20384;DHT22;46458;50.966;7.002;2024-03-29T00:49:59;8.90;99.90
20384;DHT22;46458;50.966;7.002;2024-03-29T00:52:26;9.00;99.90
20384;DHT22;46458;50.966;7.002;2024-03-29T00:54:52;8.90;99.90
20384;DHT22;46458;50.966;7.002;2024-03-29T00:57:18;8.90;99.90
20384;DHT22;46458;50.966;7.002;2024-03-29T00:59:45;8.90;99.90
20384;DHT22;46458;50.966;7.002;2024-03-29T01:02:14;8.80;99.90
20384;DHT22;46458;50.966;7.002;2024-03-29T01:04:41;8.90;99.90
20384;DHT22;46458;50.966;7.002;2024-03-29T01:07:07;8.90;99.90
20384;DHT22;46458;50.966;7.002;2024-03-29T01:09:33;9.00;99.90
20384;DHT22;46458;50.966;7.002;2024-03-29T01:12:00;9.00;99.90
20384;DHT22;46458;50.966;7.002;2024-03-29T01:14:26;9.00;99.90
20384;DHT22;46458;50.966;7.002;2024-03-29T01:16:52;9.00;99.90
20384;DHT22;46458;50.966;7.002;2024-03-29T01:19:21;9.10;99.90
20384;DHT22;46458;50.966;7.002;2024-03-29T01:21:47;9.20;99.90
20384;DHT22;46458;50.966;7.002;2024-03-29T01:24:13;9.30;99.90
20384;DHT22;46458;50.966;7.002;2024-03-29T01:26:39;9.40;99.90
20384;DHT22;46458;50.966;7.002;2024-03-29T01:29:05;9.40;99.90
20384;DHT22;46458;50.966;7.002;2024-03-29T01:31:32;9.40;99.90
20384;DHT22;46458;50.966;7.002;2024-03-29T01:33:58;9.40;99.90
20384;DHT22;46458;50.966;7.002;2024-03-29T01:36:27;9.40;99.90
20384;DHT22;46458;50.966;7.002;2024-03-29T01:38:53;9.30;99.90
20384;DHT22;46458;50.966;7.002;2024-03-29T01:41:19;9.40;99.90
20384;DHT22;46458;50.966;7.002;2024-03-29T01:43:45;9.40;99.90
20384;DHT22;46458;50.966;7.002;2024-03-29T01:46:11;9.40;99.90
20384;DHT22;46458;50.966;7.002;2024-03-29T01:48:37;9.40;99.90
20384;DHT22;46458;50.966;7.002;2024-03-29T01:51:04;9.40;99.90
20384;DHT22;46458;50.966;7.002;2024-03-29T01:53:33;9.40;99.90
20384;DHT22;46458;50.966;7.002;2024-03-29T01:56:00;9.40;99.90
20384;DHT22;46458;50.966;7.002;2024-03-29T01:58:27;9.40;99.90
20384;DHT22;46458;50.966;7.002;2024-03-29T02:00:56;9.40;99.90
20384;DHT22;46458;50.966;7.002;2024-03-29T02:03:24;9.50;99.90
20384;DHT22;46458;50.966;7.002;2024-03-29T02:05:50;9.50;99.90
20384;DHT22;46458;50.966;7.002;2024-03-29T02:08:17;9.60;99.90
20384;DHT22;46458;50.966;7.002;2024-03-29T02:10:47;9.50;99.90
20384;DHT22;46458;50.966;7.002;2024-03-29T02:13:13;9.50;99.90
20384;DHT22;46458;50.966;7.002;2024-03-29T02:15:40;9.50;99.90
20384;DHT22;46458;50.966;7.002;2024-03-29T02:18:06;9.50;99.90
20384;DHT22;46458;50.966;7.002;2024-03-29T02:20:33;9.40;99.90
20384;DHT22;46458;50.966;7.002;2024-03-29T02:23:02;9.50;99.90
20384;DHT22;46458;50.966;7.002;2024-03-29T02:25:31;9.60;99.90
20384;DHT22;46458;50.966;7.002;2024-03-29T02:27:58;9.60;99.90
20384;DHT22;46458;50.966;7.002;2024-03-29T02:30:25;9.60;99.90
20384;DHT22;46458;50.966;7.002;2024-03-29T02:32:52;9.60;99.90
20384;DHT22;46458;50.966;7.002;2024-03-29T02:35:18;9.70;99.90
20384;DHT22;46458;50.966;7.002;2024-03-29T02:37:44;9.70;99.90
20384;DHT22;46458;50.966;7.002;2024-03-29T02:40:11;9.70;99.90
20384;DHT22;46458;50.966;7.002;2024-03-29T02:42:40;9.80;99.90
20384;DHT22;46458;50.966;7.002;2024-03-29T02:45:07;9.70;99.90
20384;DHT22;46458;50.966;7.002;2024-03-29T02:47:34;9.80;99.90
20384;DHT22;46458;50.966;7.002;2024-03-29T02:50:00;9.70;99.90
20384;DHT22;46458;50.966;7.002;2024-03-29T02:52:26;9.70;99.90
20384;DHT22;46458;50.966;7.002;2024-03-29T02:54:53;9.70;99.90
20384;DHT22;46458;50.966;7.002;2024-03-29T02:57:19;9.70;99.90
20384;DHT22;46458;50.966;7.002;2024-03-29T02:59:48;9.70;99.90
20384;DHT22;46458;50.966;7.002;2024-03-29T03:02:14;9.70;99.90
20384;DHT22;46458;50.966;7.002;2024-03-29T03:04:40;9.60;99.90
20384;DHT22;46458;50.966;7.002;2024-03-29T03:07:06;9.60;99.90
20384;DHT22;46458;50.966;7.002;2024-03-29T03:09:47;9.60;99.90
20384;DHT22;46458;50.966;7.002;2024-03-29T03:12:29;9.50;99.90
20384;DHT22;46458;50.966;7.002;2024-03-29T03:14:58;9.60;99.90
20384;DHT22;46458;50.966;7.002;2024-03-29T03:17:25;9.70;99.90
20384;DHT22;46458;50.966;7.002;2024-03-29T03:19:51;9.60;99.90
20384;DHT22;46458;50.966;7.002;2024-03-29T03:22:18;9.60;99.90
20384;DHT22;46458;50.966;7.002;2024-03-29T03:24:44;9.60;99.90
20384;DHT22;46458;50.966;7.002;2024-03-29T03:27:11;9.70;99.90
20384;DHT22;46458;50.966;7.002;2024-03-29T03:29:37;9.60;99.90
20384;DHT22;46458;50.966;7.002;2024-03-29T03:32:09;9.60;99.90
20384;DHT22;46458;50.966;7.002;2024-03-29T03:34:35;9.60;99.90
20384;DHT22;46458;50.966;7.002;2024-03-29T03:37:01;9.60;99.90
20384;DHT22;46458;50.966;7.002;2024-03-29T03:39:27;9.60;99.90
20384;DHT22;46458;50.966;7.002;2024-03-29T03:41:53;9.60;99.90
20384;DHT22;46458;50.966;7.002;2024-03-29T03:44:20;9.70;99.90
20384;DHT22;46458;50.966;7.002;2024-03-29T03:46:47;9.70;99.90
20384;DHT22;46458;50.966;7.002;2024-03-29T03:49:15;9.70;99.90
20384;DHT22;46458;50.966;7.002;2024-03-29T03:51:42;9.60;99.90
20384;DHT22;46458;50.966;7.002;2024-03-29T03:54:08;9.60;99.90
20384;DHT22;46458;50.966;7.002;2024-03-29T03:56:34;9.60;99.90
20384;DHT22;46458;50.966;7.002;2024-03-29T03:59:00;9.60;99.90
20384;DHT22;46458;50.966;7.002;2024-03-29T04:01:26;9.60;99.90
20384;DHT22;46458;50.966;7.002;2024-03-29T04:03:52;9.60;99.90
20384;DHT22;46458;50.966;7.002;2024-03-29T04:06:21;9.60;99.90
20384;DHT22;46458;50.966;7.002;2024-03-29T04:08:47;9.60;99.90
20384;DHT22;46458;50.966;7.002;2024-03-29T04:11:14;9.60;99.90
20384;DHT22;46458;50.966;7.002;2024-03-29T04:13:42;9.60;99.90
20384;DHT22;46458;50.966;7.002;2024-03-29T04:16:09;9.60;99.90
20384;DHT22;46458;50.966;7.002;2024-03-29T04:18:35;9.60;99.90
20384;DHT22;46458;50.966;7.002;2024-03-29T04:21:02;9.50;99.90
20384;DHT22;46458;50.966;7.002;2024-03-29T04:23:31;9.60;99.90
20384;DHT22;46458;50.966;7.002;2024-03-29T04:25:58;9.60;99.90
20384;DHT22;46458;50.966;7.002;2024-03-29T04:28:25;9.60;99.90
20384;DHT22;46458;50.966;7.002;2024-03-29T04:30:52;9.80;99.90
20384;DHT22;46458;50.966;7.002;2024-03-29T04:33:18;9.50;99.90
20384;DHT22;46458;50.966;7.002;2024-03-29T04:35:53;9.50;99.90
20384;DHT22;46458;50.966;7.002;2024-03-29T04:38:19;9.50;99.90
20384;DHT22;46458;50.966;7.002;2024-03-29T04:40:48;9.30;99.90
20384;DHT22;46458;50.966;7.002;2024-03-29T04:43:15;9.40;99.90
20384;DHT22;46458;50.966;7.002;2024-03-29T04:45:41;9.60;99.90
20384;DHT22;46458;50.966;7.002;2024-03-29T04:48:07;9.40;99.90
20384;DHT22;46458;50.966;7.002;2024-03-29T04:50:34;9.40;99.90
20384;DHT22;46458;50.966;7.002;2024-03-29T04:53:00;9.40;99.90
20384;DHT22;46458;50.966;7.002;2024-03-29T04:55:26;9.30;99.90
20384;DHT22;46458;50.966;7.002;2024-03-29T04:57:55;9.60;99.90
20384;DHT22;46458;50.966;7.002;2024-03-29T05:00:21;9.40;99.90
20384;DHT22;46458;50.966;7.002;2024-03-29T05:02:47;9.40;99.90
20384;DHT22;46458;50.966;7.002;2024-03-29T05:05:14;9.30;99.90
20384;DHT22;46458;50.966;7.002;2024-03-29T05:07:40;9.30;1.00
20384;DHT22;46458;50.966;7.002;2024-03-29T05:10:07;9.30;1.00
20384;DHT22;46458;50.966;7.002;2024-03-29T05:12:33;9.30;1.00
20384;DHT22;46458;50.966;7.002;2024-03-29T05:15:02;9.30;1.00
20384;DHT22;46458;50.966;7.002;2024-03-29T05:17:28;9.30;1.00
20384;DHT22;46458;50.966;7.002;2024-03-29T05:19:55;9.30;1.00
20384;DHT22;46458;50.966;7.002;2024-03-29T05:22:21;9.30;1.00
20384;DHT22;46458;50.966;7.002;2024-03-29T05:24:47;9.30;1.00
20384;DHT22;46458;50.966;7.002;2024-03-29T05:27:14;9.20;1.00
20384;DHT22;46458;50.966;7.002;2024-03-29T05:29:40;9.30;1.00
20384;DHT22;46458;50.966;7.002;2024-03-29T05:32:09;9.40;1.00
20384;DHT22;46458;50.966;7.002;2024-03-29T05:34:35;9.30;1.00
20384;DHT22;46458;50.966;7.002;2024-03-29T05:37:01;9.30;1.00
20384;DHT22;46458;50.966;7.002;2024-03-29T05:39:27;9.30;1.00
20384;DHT22;46458;50.966;7.002;2024-03-29T05:41:53;9.40;1.00
20384;DHT22;46458;50.966;7.002;2024-03-29T05:44:20;9.40;1.00
20384;DHT22;46458;50.966;7.002;2024-03-29T05:46:46;9.40;1.00
20384;DHT22;46458;50.966;7.002;2024-03-29T05:49:14;9.30;1.00
20384;DHT22;46458;50.966;7.002;2024-03-29T05:51:41;9.40;1.00
20384;DHT22;46458;50.966;7.002;2024-03-29T05:54:07;9.40;1.00
20384;DHT22;46458;50.966;7.002;2024-03-29T05:56:33;9.40;1.00
20384;DHT22;46458;50.966;7.002;2024-03-29T05:59:00;9.40;1.00
20384;DHT22;46458;50.966;7.002;2024-03-29T06:01:26;9.40;1.00
20384;DHT22;46458;50.966;7.002;2024-03-29T06:03:52;9.50;1.00
20384;DHT22;46458;50.966;7.002;2024-03-29T06:06:21;9.50;1.00
20384;DHT22;46458;50.966;7.002;2024-03-29T06:08:48;9.50;1.00
20384;DHT22;46458;50.966;7.002;2024-03-29T06:11:14;9.50;1.00
20384;DHT22;46458;50.966;7.002;2024-03-29T06:13:40;9.50;1.00
20384;DHT22;46458;50.966;7.002;2024-03-29T06:16:21;9.50;1.00
20384;DHT22;46458;50.966;7.002;2024-03-29T06:19:03;9.60;1.00
20384;DHT22;46458;50.966;7.002;2024-03-29T06:21:32;9.60;1.00
20384;DHT22;46458;50.966;7.002;2024-03-29T06:23:58;9.70;1.00
20384;DHT22;46458;50.966;7.002;2024-03-29T06:26:24;9.70;1.00
20384;DHT22;46458;50.966;7.002;2024-03-29T06:28:50;9.80;6.10
20384;DHT22;46458;50.966;7.002;2024-03-29T06:31:16;9.80;1.00
20384;DHT22;46458;50.966;7.002;2024-03-29T06:33:42;9.90;1.00
20384;DHT22;46458;50.966;7.002;2024-03-29T06:36:09;9.90;1.00
20384;DHT22;46458;50.966;7.002;2024-03-29T06:38:37;9.90;1.00
20384;DHT22;46458;50.966;7.002;2024-03-29T06:41:04;10.00;26.10
20384;DHT22;46458;50.966;7.002;2024-03-29T06:43:30;10.00;10.00
20384;DHT22;46458;50.966;7.002;2024-03-29T06:45:56;10.00;22.40
20384;DHT22;46458;50.966;7.002;2024-03-29T06:48:22;10.10;22.70
20384;DHT22;46458;50.966;7.002;2024-03-29T06:50:48;10.10;35.60
20384;DHT22;46458;50.966;7.002;2024-03-29T06:53:15;10.20;46.60
20384;DHT22;46458;50.966;7.002;2024-03-29T06:55:44;10.20;51.00
20384;DHT22;46458;50.966;7.002;2024-03-29T06:58:10;10.30;62.60
20384;DHT22;46458;50.966;7.002;2024-03-29T07:00:36;10.30;29.10
20384;DHT22;46458;50.966;7.002;2024-03-29T07:03:02;10.50;1.00
20384;DHT22;46458;50.966;7.002;2024-03-29T07:05:28;10.60;1.00
20384;DHT22;46458;50.966;7.002;2024-03-29T07:07:55;10.60;1.00
20384;DHT22;46458;50.966;7.002;2024-03-29T07:10:21;10.60;1.00
20384;DHT22;46458;50.966;7.002;2024-03-29T07:12:50;10.60;1.00
20384;DHT22;46458;50.966;7.002;2024-03-29T07:15:16;10.60;33.70
20384;DHT22;46458;50.966;7.002;2024-03-29T07:17:42;10.70;35.70
20384;DHT22;46458;50.966;7.002;2024-03-29T07:20:10;10.70;76.60
20384;DHT22;46458;50.966;7.002;2024-03-29T07:22:36;10.80;99.90
20384;DHT22;46458;50.966;7.002;2024-03-29T07:25:03;10.90;99.90
20384;DHT22;46458;50.966;7.002;2024-03-29T07:27:31;11.00;83.10
20384;DHT22;46458;50.966;7.002;2024-03-29T07:30:00;11.00;35.00
20384;DHT22;46458;50.966;7.002;2024-03-29T07:32:26;11.10;1.00
20384;DHT22;46458;50.966;7.002;2024-03-29T07:34:52;11.20;1.00
20384;DHT22;46458;50.966;7.002;2024-03-29T07:37:18;11.20;1.00
20384;DHT22;46458;50.966;7.002;2024-03-29T07:39:44;11.30;1.00
20384;DHT22;46458;50.966;7.002;2024-03-29T07:42:10;11.20;29.20
20384;DHT22;46458;50.966;7.002;2024-03-29T07:44:36;11.10;97.30
20384;DHT22;46458;50.966;7.002;2024-03-29T07:47:05;11.20;98.40
20384;DHT22;46458;50.966;7.002;2024-03-29T07:49:31;11.30;99.90
20384;DHT22;46458;50.966;7.002;2024-03-29T07:51:58;11.30;93.80
20384;DHT22;46458;50.966;7.002;2024-03-29T07:54:24;11.40;99.90
20384;DHT22;46458;50.966;7.002;2024-03-29T07:56:50;11.40;99.90
20384;DHT22;46458;50.966;7.002;2024-03-29T07:59:16;11.50;99.90
20384;DHT22;46458;50.966;7.002;2024-03-29T08:01:43;11.50;99.90
20384;DHT22;46458;50.966;7.002;2024-03-29T08:04:11;11.70;99.90
20384;DHT22;46458;50.966;7.002;2024-03-29T08:06:38;11.70;99.90
20384;DHT22;46458;50.966;7.002;2024-03-29T08:09:04;11.80;36.30
20384;DHT22;46458;50.966;7.002;2024-03-29T08:11:30;11.80;44.80
20384;DHT22;46458;50.966;7.002;2024-03-29T08:13:57;12.00;13.80
20384;DHT22;46458;50.966;7.002;2024-03-29T08:16:23;12.00;1.00
20384;DHT22;46458;50.966;7.002;2024-03-29T08:18:49;12.20;1.00
20384;DHT22;46458;50.966;7.002;2024-03-29T08:21:18;12.20;1.00
20384;DHT22;46458;50.966;7.002;2024-03-29T08:23:44;12.30;1.00
20384;DHT22;46458;50.966;7.002;2024-03-29T08:26:10;12.30;1.00
20384;DHT22;46458;50.966;7.002;2024-03-29T08:28:36;12.40;1.00
20384;DHT22;46458;50.966;7.002;2024-03-29T08:31:05;12.50;1.00
20384;DHT22;46458;50.966;7.002;2024-03-29T08:33:31;12.50;1.00
20384;DHT22;46458;50.966;7.002;2024-03-29T08:35:58;12.60;1.00
20384;DHT22;46458;50.966;7.002;2024-03-29T08:38:26;12.70;1.00
20384;DHT22;46458;50.966;7.002;2024-03-29T08:40:53;12.80;1.00
20384;DHT22;46458;50.966;7.002;2024-03-29T08:43:19;12.80;1.00
20384;DHT22;46458;50.966;7.002;2024-03-29T08:45:45;13.00;1.00
20384;DHT22;46458;50.966;7.002;2024-03-29T08:48:11;13.00;1.00
20384;DHT22;46458;50.966;7.002;2024-03-29T08:50:38;13.00;1.00
20384;DHT22;46458;50.966;7.002;2024-03-29T08:53:04;13.00;1.00
20384;DHT22;46458;50.966;7.002;2024-03-29T08:55:34;13.10;1.00
20384;DHT22;46458;50.966;7.002;2024-03-29T08:58:01;13.00;1.00
20384;DHT22;46458;50.966;7.002;2024-03-29T09:00:27;13.10;1.00
20384;DHT22;46458;50.966;7.002;2024-03-29T09:02:54;13.20;1.00
20384;DHT22;46458;50.966;7.002;2024-03-29T09:05:21;13.40;1.00
20384;DHT22;46458;50.966;7.002;2024-03-29T09:07:48;13.60;1.00
20384;DHT22;46458;50.966;7.002;2024-03-29T09:10:14;13.70;1.00
20384;DHT22;46458;50.966;7.002;2024-03-29T09:12:43;13.80;1.00
20384;DHT22;46458;50.966;7.002;2024-03-29T09:15:10;13.90;1.00
20384;DHT22;46458;50.966;7.002;2024-03-29T09:17:36;13.90;1.00
20384;DHT22;46458;50.966;7.002;2024-03-29T09:20:03;14.00;1.00
20384;DHT22;46458;50.966;7.002;2024-03-29T09:22:30;14.20;1.00
20384;DHT22;46458;50.966;7.002;2024-03-29T09:24:56;14.30;1.00
20384;DHT22;46458;50.966;7.002;2024-03-29T09:27:22;14.40;99.90
20384;DHT22;46458;50.966;7.002;2024-03-29T09:29:51;14.50;99.90
20384;DHT22;46458;50.966;7.002;2024-03-29T09:32:18;14.50;99.90
20384;DHT22;46458;50.966;7.002;2024-03-29T09:34:44;14.50;99.90
20384;DHT22;46458;50.966;7.002;2024-03-29T09:37:11;14.60;99.90
20384;DHT22;46458;50.966;7.002;2024-03-29T09:39:37;14.70;99.90
20384;DHT22;46458;50.966;7.002;2024-03-29T09:42:04;14.80;99.90
20384;DHT22;46458;50.966;7.002;2024-03-29T09:44:33;14.80;99.90
20384;DHT22;46458;50.966;7.002;2024-03-29T09:47:03;14.80;99.90
20384;DHT22;46458;50.966;7.002;2024-03-29T09:49:31;14.80;99.90
20384;DHT22;46458;50.966;7.002;2024-03-29T09:51:58;14.90;99.90
20384;DHT22;46458;50.966;7.002;2024-03-29T09:54:24;15.10;99.90
20384;DHT22;46458;50.966;7.002;2024-03-29T09:56:52;15.10;99.90
20384;DHT22;46458;50.966;7.002;2024-03-29T09:59:19;15.40;99.90
20384;DHT22;46458;50.966;7.002;2024-03-29T10:01:45;15.60;99.90
20384;DHT22;46458;50.966;7.002;2024-03-29T10:04:14;15.60;99.90
20384;DHT22;46458;50.966;7.002;2024-03-29T10:06:44;15.60;99.90
20384;DHT22;46458;50.966;7.002;2024-03-29T10:09:11;15.40;99.90
20384;DHT22;46458;50.966;7.002;2024-03-29T10:11:38;15.30;99.90
20384;DHT22;46458;50.966;7.002;2024-03-29T10:14:04;15.20;99.90
20384;DHT22;46458;50.966;7.002;2024-03-29T10:16:31;15.30;99.90
20384;DHT22;46458;50.966;7.002;2024-03-29T10:18:58;15.30;99.90
20384;DHT22;46458;50.966;7.002;2024-03-29T10:21:27;15.50;99.90
20384;DHT22;46458;50.966;7.002;2024-03-29T10:23:53;15.50;99.90
20384;DHT22;46458;50.966;7.002;2024-03-29T10:26:20;15.60;99.90
20384;DHT22;46458;50.966;7.002;2024-03-29T10:28:47;15.60;99.90
20384;DHT22;46458;50.966;7.002;2024-03-29T10:31:13;15.60;99.90
20384;DHT22;46458;50.966;7.002;2024-03-29T10:33:42;15.60;99.90
20384;DHT22;46458;50.966;7.002;2024-03-29T10:36:08;15.60;99.90
20384;DHT22;46458;50.966;7.002;2024-03-29T10:38:38;16.00;99.90
20384;DHT22;46458;50.966;7.002;2024-03-29T10:41:04;15.80;99.90
20384;DHT22;46458;50.966;7.002;2024-03-29T10:43:30;15.80;99.90
20384;DHT22;46458;50.966;7.002;2024-03-29T10:45:57;15.90;99.90
20384;DHT22;46458;50.966;7.002;2024-03-29T10:48:27;16.00;99.90
20384;DHT22;46458;50.966;7.002;2024-03-29T10:50:54;16.00;99.90
20384;DHT22;46458;50.966;7.002;2024-03-29T10:53:21;16.10;99.90
20384;DHT22;46458;50.966;7.002;2024-03-29T10:55:51;16.20;99.90
20384;DHT22;46458;50.966;7.002;2024-03-29T10:58:20;16.20;99.90
20384;DHT22;46458;50.966;7.002;2024-03-29T11:00:48;16.20;99.90
20384;DHT22;46458;50.966;7.002;2024-03-29T11:03:26;16.20;99.90
20384;DHT22;46458;50.966;7.002;2024-03-29T11:05:57;16.20;71.30
20384;DHT22;46458;50.966;7.002;2024-03-29T11:08:26;16.20;99.90
20384;DHT22;46458;50.966;7.002;2024-03-29T11:10:58;16.10;99.90
20384;DHT22;46458;50.966;7.002;2024-03-29T11:13:29;16.00;99.90
20384;DHT22;46458;50.966;7.002;2024-03-29T11:15:59;15.80;99.90
20384;DHT22;46458;50.966;7.002;2024-03-29T11:18:26;15.80;99.90
20384;DHT22;46458;50.966;7.002;2024-03-29T11:20:53;15.80;99.90
20384;DHT22;46458;50.966;7.002;2024-03-29T11:23:21;15.90;99.90
20384;DHT22;46458;50.966;7.002;2024-03-29T11:25:49;15.90;99.90
20384;DHT22;46458;50.966;7.002;2024-03-29T11:28:24;15.90;99.90
20384;DHT22;46458;50.966;7.002;2024-03-29T11:30:50;15.90;99.90
20384;DHT22;46458;50.966;7.002;2024-03-29T11:33:27;15.90;99.90
20384;DHT22;46458;50.966;7.002;2024-03-29T11:35:54;15.70;99.90
20384;DHT22;46458;50.966;7.002;2024-03-29T11:38:20;15.60;99.90
20384;DHT22;46458;50.966;7.002;2024-03-29T11:40:54;15.60;99.90
20384;DHT22;46458;50.966;7.002;2024-03-29T11:43:22;15.60;99.90
20384;DHT22;46458;50.966;7.002;2024-03-29T11:45:50;15.70;99.90
20384;DHT22;46458;50.966;7.002;2024-03-29T11:48:21;15.70;99.90
20384;DHT22;46458;50.966;7.002;2024-03-29T11:50:49;15.60;99.90
20384;DHT22;46458;50.966;7.002;2024-03-29T11:53:15;15.60;99.90
20384;DHT22;46458;50.966;7.002;2024-03-29T11:55:41;15.50;99.90
20384;DHT22;46458;50.966;7.002;2024-03-29T11:58:10;15.50;99.90
20384;DHT22;46458;50.966;7.002;2024-03-29T12:00:39;15.60;99.90
20384;DHT22;46458;50.966;7.002;2024-03-29T12:03:05;15.60;99.90
20384;DHT22;46458;50.966;7.002;2024-03-29T12:05:32;15.50;99.90
20384;DHT22;46458;50.966;7.002;2024-03-29T12:07:58;15.30;99.90
20384;DHT22;46458;50.966;7.002;2024-03-29T12:10:26;15.30;99.90
20384;DHT22;46458;50.966;7.002;2024-03-29T12:12:56;15.20;99.90
20384;DHT22;46458;50.966;7.002;2024-03-29T12:15:23;15.30;99.90
20384;DHT22;46458;50.966;7.002;2024-03-29T12:17:58;15.30;99.90
20384;DHT22;46458;50.966;7.002;2024-03-29T12:20:24;15.30;99.90
20384;DHT22;46458;50.966;7.002;2024-03-29T12:22:51;15.30;99.90
20384;DHT22;46458;50.966;7.002;2024-03-29T12:25:19;15.30;99.90
20384;DHT22;46458;50.966;7.002;2024-03-29T12:27:46;15.40;99.90
20384;DHT22;46458;50.966;7.002;2024-03-29T12:30:16;15.70;99.90
20384;DHT22;46458;50.966;7.002;2024-03-29T12:32:42;15.70;99.90
20384;DHT22;46458;50.966;7.002;2024-03-29T12:35:13;15.70;99.90
20384;DHT22;46458;50.966;7.002;2024-03-29T12:37:47;15.80;99.90
20384;DHT22;46458;50.966;7.002;2024-03-29T12:40:13;15.90;99.90
20384;DHT22;46458;50.966;7.002;2024-03-29T12:42:41;16.20;99.90
20384;DHT22;46458;50.966;7.002;2024-03-29T12:45:08;16.20;99.90
20384;DHT22;46458;50.966;7.002;2024-03-29T12:47:35;16.20;99.90
20384;DHT22;46458;50.966;7.002;2024-03-29T12:50:02;15.90;99.90
20384;DHT22;46458;50.966;7.002;2024-03-29T12:52:36;15.70;99.90
20384;DHT22;46458;50.966;7.002;2024-03-29T12:55:03;15.50;99.90
20384;DHT22;46458;50.966;7.002;2024-03-29T12:57:30;15.50;99.90
20384;DHT22;46458;50.966;7.002;2024-03-29T12:59:56;15.60;99.90
20384;DHT22;46458;50.966;7.002;2024-03-29T13:02:22;15.60;99.90
20384;DHT22;46458;50.966;7.002;2024-03-29T13:04:48;15.60;99.90
20384;DHT22;46458;50.966;7.002;2024-03-29T13:07:14;15.70;99.90
20384;DHT22;46458;50.966;7.002;2024-03-29T13:09:43;15.90;99.90
20384;DHT22;46458;50.966;7.002;2024-03-29T13:12:09;16.00;99.90
20384;DHT22;46458;50.966;7.002;2024-03-29T13:14:35;15.90;99.90
20384;DHT22;46458;50.966;7.002;2024-03-29T13:17:01;15.90;99.90
20384;DHT22;46458;50.966;7.002;2024-03-29T13:19:28;15.70;99.90
20384;DHT22;46458;50.966;7.002;2024-03-29T13:21:54;15.60;99.90
20384;DHT22;46458;50.966;7.002;2024-03-29T13:24:20;15.80;99.90
20384;DHT22;46458;50.966;7.002;2024-03-29T13:26:49;16.10;99.90
20384;DHT22;46458;50.966;7.002;2024-03-29T13:29:15;16.70;99.90
20384;DHT22;46458;50.966;7.002;2024-03-29T13:31:41;16.90;99.90
20384;DHT22;46458;50.966;7.002;2024-03-29T13:34:08;17.00;99.90
20384;DHT22;46458;50.966;7.002;2024-03-29T13:36:38;16.90;99.90
20384;DHT22;46458;50.966;7.002;2024-03-29T13:39:04;16.70;99.90
20384;DHT22;46458;50.966;7.002;2024-03-29T13:41:31;16.60;99.90
20384;DHT22;46458;50.966;7.002;2024-03-29T13:43:59;16.60;99.90
20384;DHT22;46458;50.966;7.002;2024-03-29T13:46:25;16.70;99.90
20384;DHT22;46458;50.966;7.002;2024-03-29T13:48:52;16.80;99.90
20384;DHT22;46458;50.966;7.002;2024-03-29T13:51:18;17.20;99.90
20384;DHT22;46458;50.966;7.002;2024-03-29T13:53:44;18.20;99.90
20384;DHT22;46458;50.966;7.002;2024-03-29T13:56:10;19.50;99.90
20384;DHT22;46458;50.966;7.002;2024-03-29T13:58:36;21.00;89.40
20384;DHT22;46458;50.966;7.002;2024-03-29T14:01:05;23.30;62.00
20384;DHT22;46458;50.966;7.002;2024-03-29T14:03:31;23.40;38.30
20384;DHT22;46458;50.966;7.002;2024-03-29T14:05:57;22.80;28.60
20384;DHT22;46458;50.966;7.002;2024-03-29T14:08:24;22.10;99.90
20384;DHT22;46458;50.966;7.002;2024-03-29T14:10:50;21.10;99.90
20384;DHT22;46458;50.966;7.002;2024-03-29T14:13:16;20.20;99.90
20384;DHT22;46458;50.966;7.002;2024-03-29T14:15:43;19.50;99.90
20384;DHT22;46458;50.966;7.002;2024-03-29T14:18:11;19.10;99.90
20384;DHT22;46458;50.966;7.002;2024-03-29T14:20:39;18.50;99.90
20384;DHT22;46458;50.966;7.002;2024-03-29T14:23:05;18.00;99.90
20384;DHT22;46458;50.966;7.002;2024-03-29T14:25:31;18.10;99.90
20384;DHT22;46458;50.966;7.002;2024-03-29T14:27:57;18.30;99.90
20384;DHT22;46458;50.966;7.002;2024-03-29T14:30:24;18.30;99.90
20384;DHT22;46458;50.966;7.002;2024-03-29T14:32:51;18.20;99.90
20384;DHT22;46458;50.966;7.002;2024-03-29T14:35:20;18.30;99.90
20384;DHT22;46458;50.966;7.002;2024-03-29T14:37:46;18.70;99.90
20384;DHT22;46458;50.966;7.002;2024-03-29T14:40:12;18.60;99.90
20384;DHT22;46458;50.966;7.002;2024-03-29T14:42:39;18.80;99.90
20384;DHT22;46458;50.966;7.002;2024-03-29T14:45:07;18.70;99.90
20384;DHT22;46458;50.966;7.002;2024-03-29T14:47:33;18.40;99.90
20384;DHT22;46458;50.966;7.002;2024-03-29T14:50:00;18.00;99.90
20384;DHT22;46458;50.966;7.002;2024-03-29T14:52:29;17.90;99.90
20384;DHT22;46458;50.966;7.002;2024-03-29T14:54:55;17.60;99.90
20384;DHT22;46458;50.966;7.002;2024-03-29T14:57:21;17.70;99.90
20384;DHT22;46458;50.966;7.002;2024-03-29T14:59:48;18.10;99.90
20384;DHT22;46458;50.966;7.002;2024-03-29T15:02:14;18.60;99.90
20384;DHT22;46458;50.966;7.002;2024-03-29T15:04:40;19.20;99.90
20384;DHT22;46458;50.966;7.002;2024-03-29T15:07:06;19.60;99.90
20384;DHT22;46458;50.966;7.002;2024-03-29T15:09:35;20.10;99.90
20384;DHT22;46458;50.966;7.002;2024-03-29T15:12:01;20.70;99.90
20384;DHT22;46458;50.966;7.002;2024-03-29T15:14:28;21.30;99.90
20384;DHT22;46458;50.966;7.002;2024-03-29T15:16:54;21.40;99.90
20384;DHT22;46458;50.966;7.002;2024-03-29T15:19:24;21.00;99.90
20384;DHT22;46458;50.966;7.002;2024-03-29T15:21:50;20.20;99.90
20384;DHT22;46458;50.966;7.002;2024-03-29T15:24:16;19.50;99.90
20384;DHT22;46458;50.966;7.002;2024-03-29T15:26:45;18.90;99.90
20384;DHT22;46458;50.966;7.002;2024-03-29T15:29:11;18.50;99.90
20384;DHT22;46458;50.966;7.002;2024-03-29T15:31:38;18.00;99.90
20384;DHT22;46458;50.966;7.002;2024-03-29T15:34:05;17.60;99.90
20384;DHT22;46458;50.966;7.002;2024-03-29T15:36:32;17.40;99.90
20384;DHT22;46458;50.966;7.002;2024-03-29T15:38:59;17.10;99.90